sensor_id;sensor_type;location;lat;lon;timestamp;P1;durP1;ratioP1;P2;durP2;ratioP2
44376;SDS011;30093;0.000;0.000;2022-07-12T00:55:36;3.60;;;1.15;;
44376;SDS011;30093;0.000;0.000;2022-07-12T01:26:04;3.80;;;0.90;;
44376;SDS011;30093;0.000;0.000;2022-07-12T01:29:54;4.95;;;1.00;;
44376;SDS011;30093;0.000;0.000;2022-07-12T01:33:42;7.20;;;1.20;;
44376;SDS011;30093;0.000;0.000;2022-07-12T01:37:33;4.97;;;1.00;;
44376;SDS011;30093;0.000;0.000;2022-07-12T01:41:23;3.77;;;0.90;;
44376;SDS011;30093;0.000;0.000;2022-07-12T01:49:03;6.78;;;1.20;;
44376;SDS011;30093;0.000;0.000;2022-07-12T01:52:52;5.30;;;1.52;;
44376;SDS011;30093;0.000;0.000;2022-07-12T01:56:40;5.25;;;0.95;;
44376;SDS011;30093;0.000;0.000;2022-07-12T02:00:30;5.93;;;1.00;;
44376;SDS011;30093;0.000;0.000;2022-07-12T02:04:19;2.40;;;1.02;;
44376;SDS011;30093;0.000;0.000;2022-07-12T02:08:07;5.38;;;1.30;;
44376;SDS011;30093;0.000;0.000;2022-07-12T02:11:56;5.60;;;1.15;;
44376;SDS011;30093;0.000;0.000;2022-07-12T02:15:45;4.75;;;1.60;;
44376;SDS011;30093;0.000;0.000;2022-07-12T02:19:33;4.80;;;1.52;;
44376;SDS011;30093;0.000;0.000;2022-07-12T02:23:22;2.88;;;1.20;;
44376;SDS011;30093;0.000;0.000;2022-07-12T02:27:10;5.07;;;1.17;;
44376;SDS011;30093;0.000;0.000;2022-07-12T02:30:58;3.90;;;1.50;;
44376;SDS011;30093;0.000;0.000;2022-07-12T02:34:46;7.75;;;1.88;;
44376;SDS011;30093;0.000;0.000;2022-07-12T02:38:35;5.88;;;1.60;;
44376;SDS011;30093;0.000;0.000;2022-07-12T02:42:22;5.50;;;1.48;;
44376;SDS011;30093;0.000;0.000;2022-07-12T02:46:11;7.47;;;1.92;;
44376;SDS011;30093;0.000;0.000;2022-07-12T02:50:00;5.40;;;1.50;;
44376;SDS011;30093;0.000;0.000;2022-07-12T02:53:48;5.80;;;1.30;;
44376;SDS011;30093;0.000;0.000;2022-07-12T02:57:37;6.68;;;1.88;;
44376;SDS011;30093;0.000;0.000;2022-07-12T03:01:24;5.90;;;1.63;;
44376;SDS011;30093;0.000;0.000;2022-07-12T03:05:13;5.68;;;1.90;;
44376;SDS011;30093;0.000;0.000;2022-07-12T03:09:01;5.38;;;1.85;;
44376;SDS011;30093;0.000;0.000;2022-07-12T03:12:50;5.60;;;1.95;;
44376;SDS011;30093;0.000;0.000;2022-07-12T03:16:39;6.05;;;1.65;;
44376;SDS011;30093;0.000;0.000;2022-07-12T03:20:27;5.82;;;2.03;;
44376;SDS011;30093;0.000;0.000;2022-07-12T03:24:16;5.93;;;2.20;;
44376;SDS011;30093;0.000;0.000;2022-07-12T03:28:05;8.50;;;1.90;;
44376;SDS011;30093;0.000;0.000;2022-07-12T03:31:53;7.38;;;1.83;;
44376;SDS011;30093;0.000;0.000;2022-07-12T03:35:42;6.13;;;2.50;;
44376;SDS011;30093;0.000;0.000;2022-07-12T03:39:30;9.70;;;2.63;;
44376;SDS011;30093;0.000;0.000;2022-07-12T03:43:19;6.75;;;1.88;;
44376;SDS011;30093;0.000;0.000;2022-07-12T03:47:07;4.53;;;1.52;;
44376;SDS011;30093;0.000;0.000;2022-07-12T03:50:55;6.97;;;1.63;;
44376;SDS011;30093;0.000;0.000;2022-07-12T03:54:43;10.88;;;2.42;;
44376;SDS011;30093;0.000;0.000;2022-07-12T03:58:32;9.20;;;1.70;;
44376;SDS011;30093;0.000;0.000;2022-07-12T04:02:20;8.73;;;1.48;;
44376;SDS011;30093;0.000;0.000;2022-07-12T04:06:09;10.57;;;1.70;;
44376;SDS011;30093;0.000;0.000;2022-07-12T04:09:58;7.40;;;1.83;;
44376;SDS011;30093;0.000;0.000;2022-07-12T04:13:46;9.65;;;2.15;;
44376;SDS011;30093;0.000;0.000;2022-07-12T04:17:34;15.07;;;1.85;;
44376;SDS011;30093;0.000;0.000;2022-07-12T04:21:22;8.65;;;1.42;;
44376;SDS011;30093;0.000;0.000;2022-07-12T04:25:11;8.57;;;1.80;;
44376;SDS011;30093;0.000;0.000;2022-07-12T04:28:59;10.73;;;1.63;;
44376;SDS011;30093;0.000;0.000;2022-07-12T04:32:48;7.25;;;1.50;;
44376;SDS011;30093;0.000;0.000;2022-07-12T04:36:37;11.75;;;2.63;;
44376;SDS011;30093;0.000;0.000;2022-07-12T04:40:26;5.47;;;1.75;;
44376;SDS011;30093;0.000;0.000;2022-07-12T04:44:15;9.77;;;1.50;;
44376;SDS011;30093;0.000;0.000;2022-07-12T04:48:03;5.15;;;1.48;;
44376;SDS011;30093;0.000;0.000;2022-07-12T04:51:52;11.18;;;2.00;;
44376;SDS011;30093;0.000;0.000;2022-07-12T04:55:40;6.95;;;2.10;;
44376;SDS011;30093;0.000;0.000;2022-07-12T04:59:28;10.45;;;2.17;;
44376;SDS011;30093;0.000;0.000;2022-07-12T05:03:17;7.43;;;1.77;;
44376;SDS011;30093;0.000;0.000;2022-07-12T05:07:05;9.40;;;1.42;;
44376;SDS011;30093;0.000;0.000;2022-07-12T05:10:54;6.63;;;1.80;;
44376;SDS011;30093;0.000;0.000;2022-07-12T05:14:43;10.48;;;1.70;;
44376;SDS011;30093;0.000;0.000;2022-07-12T05:18:32;8.80;;;1.27;;
44376;SDS011;30093;0.000;0.000;2022-07-12T05:22:21;6.35;;;1.40;;
44376;SDS011;30093;0.000;0.000;2022-07-12T05:26:09;4.55;;;1.50;;
44376;SDS011;30093;0.000;0.000;2022-07-12T05:29:58;5.10;;;1.30;;
44376;SDS011;30093;0.000;0.000;2022-07-12T05:33:46;5.85;;;1.35;;
44376;SDS011;30093;0.000;0.000;2022-07-12T05:37:35;5.80;;;1.92;;
44376;SDS011;30093;0.000;0.000;2022-07-12T05:41:23;8.45;;;1.52;;
44376;SDS011;30093;0.000;0.000;2022-07-12T05:45:11;11.55;;;1.40;;
44376;SDS011;30093;0.000;0.000;2022-07-12T05:48:59;7.87;;;1.20;;
44376;SDS011;30093;0.000;0.000;2022-07-12T05:52:48;7.10;;;1.23;;
44376;SDS011;30093;0.000;0.000;2022-07-12T05:56:54;6.90;;;1.45;;
44376;SDS011;30093;0.000;0.000;2022-07-12T06:00:43;8.35;;;1.60;;
44376;SDS011;30093;0.000;0.000;2022-07-12T06:04:32;5.70;;;1.35;;
44376;SDS011;30093;0.000;0.000;2022-07-12T06:08:21;8.75;;;1.70;;
44376;SDS011;30093;0.000;0.000;2022-07-12T06:12:10;3.08;;;1.00;;
44376;SDS011;30093;0.000;0.000;2022-07-12T06:15:58;2.97;;;1.25;;
44376;SDS011;30093;0.000;0.000;2022-07-12T06:19:47;4.38;;;1.25;;
44376;SDS011;30093;0.000;0.000;2022-07-12T06:23:36;6.45;;;1.20;;
44376;SDS011;30093;0.000;0.000;2022-07-12T06:27:24;4.43;;;1.00;;
44376;SDS011;30093;0.000;0.000;2022-07-12T06:31:13;4.88;;;1.00;;
44376;SDS011;30093;0.000;0.000;2022-07-12T06:35:01;2.95;;;1.20;;
44376;SDS011;30093;0.000;0.000;2022-07-12T06:38:50;6.18;;;1.95;;
44376;SDS011;30093;0.000;0.000;2022-07-12T06:42:39;8.43;;;1.20;;
44376;SDS011;30093;0.000;0.000;2022-07-12T06:46:28;2.75;;;1.30;;
44376;SDS011;30093;0.000;0.000;2022-07-12T06:50:16;3.78;;;1.30;;
44376;SDS011;30093;0.000;0.000;2022-07-12T06:54:05;5.03;;;1.20;;
44376;SDS011;30093;0.000;0.000;2022-07-12T07:01:42;2.35;;;0.75;;
44376;SDS011;30093;0.000;0.000;2022-07-12T07:05:31;2.28;;;0.60;;
44376;SDS011;30093;0.000;0.000;2022-07-12T07:09:19;1.10;;;0.65;;
44376;SDS011;30093;0.000;0.000;2022-07-12T07:13:11;2.05;;;0.68;;
44376;SDS011;30093;0.000;0.000;2022-07-12T07:20:48;4.32;;;1.02;;
44376;SDS011;30093;0.000;0.000;2022-07-12T07:24:36;4.03;;;0.60;;
44376;SDS011;30093;0.000;0.000;2022-07-12T07:28:25;2.70;;;0.80;;
44376;SDS011;30093;0.000;0.000;2022-07-12T07:36:02;2.60;;;0.50;;
44376;SDS011;30093;0.000;0.000;2022-07-12T07:39:51;3.90;;;0.73;;
44376;SDS011;30093;0.000;0.000;2022-07-12T07:43:40;2.10;;;0.73;;
44376;SDS011;30093;0.000;0.000;2022-07-12T07:47:28;5.78;;;0.77;;
44376;SDS011;30093;0.000;0.000;2022-07-12T07:51:16;2.58;;;0.70;;
44376;SDS011;30093;0.000;0.000;2022-07-12T07:55:05;1.50;;;0.50;;
44376;SDS011;30093;0.000;0.000;2022-07-12T07:58:57;4.03;;;0.60;;
44376;SDS011;30093;0.000;0.000;2022-07-12T08:02:45;1.75;;;0.43;;
44376;SDS011;30093;0.000;0.000;2022-07-12T08:06:34;3.60;;;0.68;;
44376;SDS011;30093;0.000;0.000;2022-07-12T08:10:23;3.28;;;0.80;;
44376;SDS011;30093;0.000;0.000;2022-07-12T08:14:13;3.20;;;0.43;;
44376;SDS011;30093;0.000;0.000;2022-07-12T08:18:01;2.72;;;0.82;;
44376;SDS011;30093;0.000;0.000;2022-07-12T08:21:51;2.50;;;0.57;;
44376;SDS011;30093;0.000;0.000;2022-07-12T08:25:40;4.10;;;0.80;;
44376;SDS011;30093;0.000;0.000;2022-07-12T08:29:31;2.47;;;0.68;;
44376;SDS011;30093;0.000;0.000;2022-07-12T08:33:19;7.32;;;0.55;;
44376;SDS011;30093;0.000;0.000;2022-07-12T08:37:08;2.05;;;0.65;;
44376;SDS011;30093;0.000;0.000;2022-07-12T08:40:57;5.72;;;0.80;;
44376;SDS011;30093;0.000;0.000;2022-07-12T08:44:56;4.32;;;0.90;;
44376;SDS011;30093;0.000;0.000;2022-07-12T08:48:45;3.47;;;1.08;;
44376;SDS011;30093;0.000;0.000;2022-07-12T08:52:34;3.95;;;0.88;;
44376;SDS011;30093;0.000;0.000;2022-07-12T08:56:32;3.55;;;0.98;;
44376;SDS011;30093;0.000;0.000;2022-07-12T09:00:27;2.20;;;0.80;;
44376;SDS011;30093;0.000;0.000;2022-07-12T09:04:26;1.10;;;0.50;;
44376;SDS011;30093;0.000;0.000;2022-07-12T09:08:23;2.13;;;0.82;;
44376;SDS011;30093;0.000;0.000;2022-07-12T09:12:22;2.72;;;0.90;;
44376;SDS011;30093;0.000;0.000;2022-07-12T09:16:21;6.28;;;0.77;;
44376;SDS011;30093;0.000;0.000;2022-07-12T09:20:11;2.83;;;0.98;;
44376;SDS011;30093;0.000;0.000;2022-07-12T09:24:01;1.88;;;0.55;;
44376;SDS011;30093;0.000;0.000;2022-07-12T09:27:54;4.30;;;0.93;;
44376;SDS011;30093;0.000;0.000;2022-07-12T09:31:48;3.97;;;0.98;;
44376;SDS011;30093;0.000;0.000;2022-07-12T09:36:00;4.70;;;0.90;;
44376;SDS011;30093;0.000;0.000;2022-07-12T09:40:01;5.80;;;0.90;;
44376;SDS011;30093;0.000;0.000;2022-07-12T09:43:49;2.70;;;0.85;;
44376;SDS011;30093;0.000;0.000;2022-07-12T09:47:38;2.35;;;0.70;;
44376;SDS011;30093;0.000;0.000;2022-07-12T09:51:27;3.63;;;0.70;;
44376;SDS011;30093;0.000;0.000;2022-07-12T09:55:18;3.83;;;0.88;;
44376;SDS011;30093;0.000;0.000;2022-07-12T09:59:11;2.85;;;0.57;;
44376;SDS011;30093;0.000;0.000;2022-07-12T10:03:02;2.53;;;0.70;;
44376;SDS011;30093;0.000;0.000;2022-07-12T10:06:54;1.67;;;0.68;;
44376;SDS011;30093;0.000;0.000;2022-07-12T10:10:43;2.83;;;0.70;;
44376;SDS011;30093;0.000;0.000;2022-07-12T10:14:34;3.63;;;0.70;;
44376;SDS011;30093;0.000;0.000;2022-07-12T10:18:26;4.85;;;0.80;;
44376;SDS011;30093;0.000;0.000;2022-07-12T10:22:20;3.25;;;0.80;;
44376;SDS011;30093;0.000;0.000;2022-07-12T10:30:12;3.83;;;0.63;;
44376;SDS011;30093;0.000;0.000;2022-07-12T10:34:19;4.40;;;0.88;;
44376;SDS011;30093;0.000;0.000;2022-07-12T10:45:56;5.18;;;0.80;;
44376;SDS011;30093;0.000;0.000;2022-07-12T10:50:02;0.85;;;0.40;;
44376;SDS011;30093;0.000;0.000;2022-07-12T10:53:51;7.68;;;0.95;;
44376;SDS011;30093;0.000;0.000;2022-07-12T10:57:41;10.13;;;0.85;;
44376;SDS011;30093;0.000;0.000;2022-07-12T11:01:35;4.35;;;0.63;;
44376;SDS011;30093;0.000;0.000;2022-07-12T11:05:24;2.53;;;0.60;;
44376;SDS011;30093;0.000;0.000;2022-07-12T11:09:17;5.53;;;0.70;;
44376;SDS011;30093;0.000;0.000;2022-07-12T11:13:25;5.22;;;0.60;;
44376;SDS011;30093;0.000;0.000;2022-07-12T11:17:19;9.32;;;1.13;;
44376;SDS011;30093;0.000;0.000;2022-07-12T11:21:12;2.78;;;0.40;;
44376;SDS011;30093;0.000;0.000;2022-07-12T11:25:02;1.75;;;0.60;;
44376;SDS011;30093;0.000;0.000;2022-07-12T11:28:57;2.35;;;0.45;;
44376;SDS011;30093;0.000;0.000;2022-07-12T11:32:46;0.88;;;0.43;;
44376;SDS011;30093;0.000;0.000;2022-07-12T11:36:36;2.53;;;0.65;;
44376;SDS011;30093;0.000;0.000;2022-07-12T11:40:25;3.70;;;0.40;;
44376;SDS011;30093;0.000;0.000;2022-07-12T11:44:16;0.60;;;0.28;;
44376;SDS011;30093;0.000;0.000;2022-07-12T11:48:04;1.08;;;0.40;;
44376;SDS011;30093;0.000;0.000;2022-07-12T11:51:54;2.10;;;0.55;;
44376;SDS011;30093;0.000;0.000;2022-07-12T11:55:47;5.75;;;1.40;;
44376;SDS011;30093;0.000;0.000;2022-07-12T11:59:38;4.40;;;1.20;;
44376;SDS011;30093;0.000;0.000;2022-07-12T12:03:30;1.77;;;0.60;;
44376;SDS011;30093;0.000;0.000;2022-07-12T12:07:32;2.40;;;0.68;;
44376;SDS011;30093;0.000;0.000;2022-07-12T12:11:29;1.95;;;0.45;;
44376;SDS011;30093;0.000;0.000;2022-07-12T12:15:23;1.67;;;0.60;;
44376;SDS011;30093;0.000;0.000;2022-07-12T12:19:12;6.05;;;1.17;;
44376;SDS011;30093;0.000;0.000;2022-07-12T12:23:14;5.45;;;1.40;;
44376;SDS011;30093;0.000;0.000;2022-07-12T12:27:22;2.38;;;0.70;;
44376;SDS011;30093;0.000;0.000;2022-07-12T12:31:12;1.85;;;0.60;;
44376;SDS011;30093;0.000;0.000;2022-07-12T12:35:08;0.90;;;0.60;;
44376;SDS011;30093;0.000;0.000;2022-07-12T12:38:58;3.05;;;0.60;;
44376;SDS011;30093;0.000;0.000;2022-07-12T12:42:49;2.35;;;1.17;;
44376;SDS011;30093;0.000;0.000;2022-07-12T12:46:58;1.95;;;0.60;;
44376;SDS011;30093;0.000;0.000;2022-07-12T12:54:54;1.45;;;0.73;;
44376;SDS011;30093;0.000;0.000;2022-07-12T13:02:36;2.15;;;0.40;;
44376;SDS011;30093;0.000;0.000;2022-07-12T13:06:24;3.17;;;0.65;;
44376;SDS011;30093;0.000;0.000;2022-07-12T13:10:13;3.78;;;0.90;;
44376;SDS011;30093;0.000;0.000;2022-07-12T13:14:04;3.33;;;1.38;;
44376;SDS011;30093;0.000;0.000;2022-07-12T13:17:55;4.57;;;2.15;;
44376;SDS011;30093;0.000;0.000;2022-07-12T13:21:44;6.90;;;3.25;;
44376;SDS011;30093;0.000;0.000;2022-07-12T13:25:33;3.25;;;1.42;;
44376;SDS011;30093;0.000;0.000;2022-07-12T13:29:22;1.55;;;0.50;;
44376;SDS011;30093;0.000;0.000;2022-07-12T13:33:12;1.75;;;0.85;;
44376;SDS011;30093;0.000;0.000;2022-07-12T13:44:44;2.60;;;0.50;;
44376;SDS011;30093;0.000;0.000;2022-07-12T13:48:35;3.60;;;1.00;;
44376;SDS011;30093;0.000;0.000;2022-07-12T13:52:24;3.25;;;1.45;;
44376;SDS011;30093;0.000;0.000;2022-07-12T13:56:12;2.97;;;0.40;;
44376;SDS011;30093;0.000;0.000;2022-07-12T14:00:00;3.13;;;1.48;;
44376;SDS011;30093;0.000;0.000;2022-07-12T14:03:58;4.07;;;0.50;;
44376;SDS011;30093;0.000;0.000;2022-07-12T14:07:47;1.35;;;0.75;;
44376;SDS011;30093;0.000;0.000;2022-07-12T14:11:36;1.60;;;0.80;;
44376;SDS011;30093;0.000;0.000;2022-07-12T14:15:24;2.33;;;0.47;;
44376;SDS011;30093;0.000;0.000;2022-07-12T14:19:25;2.10;;;0.75;;
44376;SDS011;30093;0.000;0.000;2022-07-12T14:23:14;1.58;;;0.40;;
44376;SDS011;30093;0.000;0.000;2022-07-12T14:27:02;3.25;;;0.30;;
44376;SDS011;30093;0.000;0.000;2022-07-12T14:30:51;2.03;;;0.40;;
44376;SDS011;30093;0.000;0.000;2022-07-12T14:34:41;1.98;;;0.50;;
44376;SDS011;30093;0.000;0.000;2022-07-12T14:38:29;4.93;;;0.52;;
44376;SDS011;30093;0.000;0.000;2022-07-12T14:42:18;2.22;;;0.73;;
44376;SDS011;30093;0.000;0.000;2022-07-12T14:50:33;2.85;;;0.50;;
44376;SDS011;30093;0.000;0.000;2022-07-12T14:54:23;6.20;;;1.00;;
44376;SDS011;30093;0.000;0.000;2022-07-12T14:58:12;3.97;;;1.00;;
44376;SDS011;30093;0.000;0.000;2022-07-12T15:02:03;1.40;;;0.68;;
44376;SDS011;30093;0.000;0.000;2022-07-12T15:05:52;3.78;;;1.10;;
44376;SDS011;30093;0.000;0.000;2022-07-12T15:09:41;1.73;;;0.60;;
44376;SDS011;30093;0.000;0.000;2022-07-12T15:13:31;5.67;;;1.20;;
44376;SDS011;30093;0.000;0.000;2022-07-12T15:17:19;4.18;;;0.60;;
44376;SDS011;30093;0.000;0.000;2022-07-12T15:21:08;2.13;;;0.52;;
44376;SDS011;30093;0.000;0.000;2022-07-12T15:24:57;3.83;;;0.60;;
44376;SDS011;30093;0.000;0.000;2022-07-12T15:28:55;1.48;;;0.50;;
44376;SDS011;30093;0.000;0.000;2022-07-12T15:32:45;6.85;;;2.00;;
44376;SDS011;30093;0.000;0.000;2022-07-12T15:36:34;5.65;;;0.80;;
44376;SDS011;30093;0.000;0.000;2022-07-12T15:40:22;2.70;;;0.55;;
44376;SDS011;30093;0.000;0.000;2022-07-12T15:44:10;3.75;;;0.60;;
44376;SDS011;30093;0.000;0.000;2022-07-12T15:47:58;3.10;;;0.60;;
44376;SDS011;30093;0.000;0.000;2022-07-12T15:51:48;3.43;;;1.00;;
44376;SDS011;30093;0.000;0.000;2022-07-12T15:56:03;4.57;;;0.85;;
44376;SDS011;30093;0.000;0.000;2022-07-12T15:59:53;0.82;;;0.30;;
44376;SDS011;30093;0.000;0.000;2022-07-12T16:03:41;4.13;;;0.77;;
44376;SDS011;30093;0.000;0.000;2022-07-12T16:07:29;2.47;;;0.55;;
44376;SDS011;30093;0.000;0.000;2022-07-12T16:11:17;5.47;;;0.55;;
44376;SDS011;30093;0.000;0.000;2022-07-12T16:15:07;4.75;;;0.57;;
44376;SDS011;30093;0.000;0.000;2022-07-12T16:18:55;8.27;;;1.10;;
44376;SDS011;30093;0.000;0.000;2022-07-12T16:22:43;6.55;;;0.75;;
44376;SDS011;30093;0.000;0.000;2022-07-12T16:26:31;3.80;;;0.73;;
44376;SDS011;30093;0.000;0.000;2022-07-12T16:30:21;3.67;;;0.47;;
44376;SDS011;30093;0.000;0.000;2022-07-12T16:37:58;8.07;;;0.70;;
44376;SDS011;30093;0.000;0.000;2022-07-12T16:41:47;2.40;;;0.43;;
44376;SDS011;30093;0.000;0.000;2022-07-12T16:45:35;0.88;;;0.43;;
44376;SDS011;30093;0.000;0.000;2022-07-12T16:49:24;2.40;;;0.57;;
44376;SDS011;30093;0.000;0.000;2022-07-12T16:53:14;8.07;;;1.40;;
44376;SDS011;30093;0.000;0.000;2022-07-12T16:57:02;1.13;;;0.40;;
44376;SDS011;30093;0.000;0.000;2022-07-12T17:00:50;5.25;;;0.50;;
44376;SDS011;30093;0.000;0.000;2022-07-12T17:04:38;4.18;;;0.68;;
44376;SDS011;30093;0.000;0.000;2022-07-12T17:08:26;1.83;;;0.57;;
44376;SDS011;30093;0.000;0.000;2022-07-12T17:12:14;3.97;;;0.60;;
44376;SDS011;30093;0.000;0.000;2022-07-12T17:16:04;0.70;;;0.40;;
44376;SDS011;30093;0.000;0.000;2022-07-12T17:19:52;1.55;;;0.40;;
44376;SDS011;30093;0.000;0.000;2022-07-12T17:23:41;1.67;;;0.50;;
44376;SDS011;30093;0.000;0.000;2022-07-12T17:27:30;4.83;;;0.70;;
44376;SDS011;30093;0.000;0.000;2022-07-12T17:31:19;3.55;;;1.00;;
44376;SDS011;30093;0.000;0.000;2022-07-12T17:35:07;1.27;;;0.40;;
44376;SDS011;30093;0.000;0.000;2022-07-12T17:38:57;4.53;;;0.75;;
44376;SDS011;30093;0.000;0.000;2022-07-12T17:42:45;2.42;;;0.68;;
44376;SDS011;30093;0.000;0.000;2022-07-12T17:46:34;4.13;;;0.63;;
44376;SDS011;30093;0.000;0.000;2022-07-12T17:50:23;2.33;;;0.95;;
44376;SDS011;30093;0.000;0.000;2022-07-12T17:54:12;3.47;;;1.50;;
44376;SDS011;30093;0.000;0.000;2022-07-12T17:58:01;2.45;;;0.70;;
44376;SDS011;30093;0.000;0.000;2022-07-12T18:02:10;4.37;;;0.73;;
44376;SDS011;30093;0.000;0.000;2022-07-12T18:05:58;2.60;;;0.70;;
44376;SDS011;30093;0.000;0.000;2022-07-12T18:09:48;3.73;;;0.60;;
44376;SDS011;30093;0.000;0.000;2022-07-12T18:13:36;4.50;;;0.65;;
44376;SDS011;30093;0.000;0.000;2022-07-12T18:17:50;3.08;;;0.40;;
44376;SDS011;30093;0.000;0.000;2022-07-12T18:21:51;1.02;;;0.60;;
44376;SDS011;30093;0.000;0.000;2022-07-12T18:25:39;1.33;;;0.60;;
44376;SDS011;30093;0.000;0.000;2022-07-12T18:29:28;3.08;;;0.60;;
44376;SDS011;30093;0.000;0.000;2022-07-12T18:33:18;2.50;;;0.67;;
44376;SDS011;30093;0.000;0.000;2022-07-12T18:37:06;2.42;;;0.80;;
44376;SDS011;30093;0.000;0.000;2022-07-12T18:40:54;4.45;;;0.80;;
44376;SDS011;30093;0.000;0.000;2022-07-12T18:44:42;4.88;;;1.10;;
44376;SDS011;30093;0.000;0.000;2022-07-12T18:48:30;2.10;;;0.98;;
44376;SDS011;30093;0.000;0.000;2022-07-12T18:52:20;4.15;;;1.15;;
44376;SDS011;30093;0.000;0.000;2022-07-12T18:56:10;3.35;;;1.20;;
44376;SDS011;30093;0.000;0.000;2022-07-12T18:59:58;2.03;;;0.90;;
44376;SDS011;30093;0.000;0.000;2022-07-12T19:03:51;16.15;;;8.05;;
44376;SDS011;30093;0.000;0.000;2022-07-12T19:07:42;25.40;;;17.55;;
44376;SDS011;30093;0.000;0.000;2022-07-12T19:11:30;13.50;;;12.10;;
44376;SDS011;30093;0.000;0.000;2022-07-12T19:15:18;11.45;;;4.18;;
44376;SDS011;30093;0.000;0.000;2022-07-12T19:19:08;4.10;;;2.83;;
44376;SDS011;30093;0.000;0.000;2022-07-12T19:22:56;7.18;;;2.58;;
44376;SDS011;30093;0.000;0.000;2022-07-12T19:26:44;3.95;;;2.28;;
44376;SDS011;30093;0.000;0.000;2022-07-12T19:30:32;3.42;;;1.60;;
44376;SDS011;30093;0.000;0.000;2022-07-12T19:34:21;1.98;;;1.25;;
44376;SDS011;30093;0.000;0.000;2022-07-12T19:38:09;5.13;;;1.25;;
44376;SDS011;30093;0.000;0.000;2022-07-12T19:41:58;4.68;;;1.77;;
44376;SDS011;30093;0.000;0.000;2022-07-12T19:45:48;3.40;;;1.05;;
44376;SDS011;30093;0.000;0.000;2022-07-12T19:49:40;3.00;;;1.40;;
44376;SDS011;30093;0.000;0.000;2022-07-12T19:53:30;4.20;;;0.90;;
44376;SDS011;30093;0.000;0.000;2022-07-12T19:57:19;5.93;;;1.15;;
44376;SDS011;30093;0.000;0.000;2022-07-12T20:01:08;3.22;;;1.30;;
44376;SDS011;30093;0.000;0.000;2022-07-12T20:04:57;6.40;;;1.35;;
44376;SDS011;30093;0.000;0.000;2022-07-12T20:08:45;2.00;;;0.90;;
44376;SDS011;30093;0.000;0.000;2022-07-12T20:12:34;4.72;;;1.27;;
44376;SDS011;30093;0.000;0.000;2022-07-12T20:16:23;10.45;;;1.70;;
44376;SDS011;30093;0.000;0.000;2022-07-12T20:20:12;10.18;;;2.38;;
44376;SDS011;30093;0.000;0.000;2022-07-12T20:24:00;3.75;;;1.40;;
44376;SDS011;30093;0.000;0.000;2022-07-12T20:27:49;4.75;;;1.20;;
44376;SDS011;30093;0.000;0.000;2022-07-12T20:31:37;5.03;;;1.45;;
44376;SDS011;30093;0.000;0.000;2022-07-12T20:35:25;6.22;;;1.30;;
44376;SDS011;30093;0.000;0.000;2022-07-12T20:39:14;7.25;;;1.40;;
44376;SDS011;30093;0.000;0.000;2022-07-12T20:43:02;4.93;;;1.33;;
44376;SDS011;30093;0.000;0.000;2022-07-12T20:46:52;2.43;;;1.13;;
44376;SDS011;30093;0.000;0.000;2022-07-12T20:50:42;7.85;;;1.55;;
44376;SDS011;30093;0.000;0.000;2022-07-12T20:54:30;2.45;;;1.17;;
44376;SDS011;30093;0.000;0.000;2022-07-12T20:58:18;2.50;;;1.17;;
44376;SDS011;30093;0.000;0.000;2022-07-12T21:02:07;4.07;;;1.48;;
44376;SDS011;30093;0.000;0.000;2022-07-12T21:05:57;3.08;;;1.40;;
44376;SDS011;30093;0.000;0.000;2022-07-12T21:09:46;4.80;;;1.20;;
44376;SDS011;30093;0.000;0.000;2022-07-12T21:13:35;5.13;;;1.10;;
44376;SDS011;30093;0.000;0.000;2022-07-12T21:17:23;3.17;;;1.02;;
44376;SDS011;30093;0.000;0.000;2022-07-12T21:21:13;2.85;;;0.90;;
44376;SDS011;30093;0.000;0.000;2022-07-12T21:25:02;4.28;;;0.80;;
44376;SDS011;30093;0.000;0.000;2022-07-12T21:28:50;2.65;;;1.23;;
44376;SDS011;30093;0.000;0.000;2022-07-12T21:32:39;3.85;;;1.15;;
44376;SDS011;30093;0.000;0.000;2022-07-12T21:40:25;3.75;;;0.90;;
44376;SDS011;30093;0.000;0.000;2022-07-12T21:44:14;5.35;;;1.08;;
44376;SDS011;30093;0.000;0.000;2022-07-12T21:48:03;4.40;;;1.00;;
44376;SDS011;30093;0.000;0.000;2022-07-12T21:51:52;3.15;;;1.42;;
44376;SDS011;30093;0.000;0.000;2022-07-12T21:55:40;4.43;;;1.20;;
44376;SDS011;30093;0.000;0.000;2022-07-12T21:59:30;2.65;;;1.25;;
44376;SDS011;30093;0.000;0.000;2022-07-12T22:03:18;5.10;;;1.33;;
44376;SDS011;30093;0.000;0.000;2022-07-12T22:07:08;2.58;;;1.25;;
44376;SDS011;30093;0.000;0.000;2022-07-12T22:10:56;5.10;;;1.58;;
44376;SDS011;30093;0.000;0.000;2022-07-12T22:14:44;8.23;;;1.45;;
44376;SDS011;30093;0.000;0.000;2022-07-12T22:18:32;4.13;;;0.90;;
44376;SDS011;30093;0.000;0.000;2022-07-12T22:22:21;2.38;;;1.08;;
44376;SDS011;30093;0.000;0.000;2022-07-12T22:26:09;3.28;;;1.10;;
44376;SDS011;30093;0.000;0.000;2022-07-12T22:29:58;3.53;;;1.15;;
44376;SDS011;30093;0.000;0.000;2022-07-12T22:33:47;2.05;;;1.00;;
44376;SDS011;30093;0.000;0.000;2022-07-12T22:37:39;5.97;;;1.35;;
44376;SDS011;30093;0.000;0.000;2022-07-12T22:41:29;3.33;;;1.23;;
44376;SDS011;30093;0.000;0.000;2022-07-12T22:45:18;6.70;;;1.70;;
44376;SDS011;30093;0.000;0.000;2022-07-12T22:49:06;2.78;;;1.02;;
44376;SDS011;30093;0.000;0.000;2022-07-12T22:52:54;4.05;;;1.52;;
44376;SDS011;30093;0.000;0.000;2022-07-12T22:56:42;7.18;;;1.30;;
44376;SDS011;30093;0.000;0.000;2022-07-12T23:00:31;1.15;;;0.75;;
44376;SDS011;30093;0.000;0.000;2022-07-12T23:04:19;3.00;;;1.33;;
44376;SDS011;30093;0.000;0.000;2022-07-12T23:08:07;2.00;;;1.13;;
44376;SDS011;30093;0.000;0.000;2022-07-12T23:11:57;2.30;;;0.95;;
44376;SDS011;30093;0.000;0.000;2022-07-12T23:15:46;4.45;;;1.13;;
44376;SDS011;30093;0.000;0.000;2022-07-12T23:19:33;3.80;;;1.02;;
44376;SDS011;30093;0.000;0.000;2022-07-12T23:23:21;2.92;;;1.20;;
44376;SDS011;30093;0.000;0.000;2022-07-12T23:27:11;2.33;;;1.27;;
44376;SDS011;30093;0.000;0.000;2022-07-12T23:30:59;2.03;;;0.93;;
44376;SDS011;30093;0.000;0.000;2022-07-12T23:34:49;2.25;;;1.08;;
44376;SDS011;30093;0.000;0.000;2022-07-12T23:38:39;4.82;;;1.38;;
44376;SDS011;30093;0.000;0.000;2022-07-12T23:42:27;2.50;;;1.10;;
44376;SDS011;30093;0.000;0.000;2022-07-12T23:46:15;2.97;;;1.48;;
44376;SDS011;30093;0.000;0.000;2022-07-12T23:50:03;2.13;;;0.80;;
44376;SDS011;30093;0.000;0.000;2022-07-12T23:53:52;2.42;;;1.20;;
44376;SDS011;30093;0.000;0.000;2022-07-12T23:57:41;3.80;;;1.27;;
